createdAt,value
2023-04-22T00:00:51.852Z,100.00
2023-04-22T00:02:24.666Z,100.00
2023-04-22T00:03:56.711Z,100.00
2023-04-22T00:05:29.015Z,100.00
2023-04-22T00:07:01.452Z,100.00
2023-04-22T00:08:33.353Z,100.00
2023-04-22T00:10:05.921Z,100.00
2023-04-22T00:11:37.826Z,100.00
2023-04-22T00:13:09.745Z,100.00
2023-04-22T00:14:41.681Z,100.00
2023-04-22T00:16:13.670Z,100.00
2023-04-22T00:17:46.242Z,100.00
2023-04-22T00:19:18.142Z,100.00
2023-04-22T00:20:50.043Z,100.00
2023-04-22T00:22:22.212Z,100.00
2023-04-22T00:23:54.672Z,100.00
2023-04-22T00:25:26.990Z,100.00
2023-04-22T00:26:58.945Z,100.00
2023-04-22T00:28:30.856Z,100.00
2023-04-22T00:30:02.907Z,100.00
2023-04-22T00:31:34.891Z,100.00
2023-04-22T00:33:06.880Z,100.00
2023-04-22T00:34:38.834Z,100.00
2023-04-22T00:36:11.039Z,100.00
2023-04-22T00:37:42.989Z,100.00
2023-04-22T00:39:15.215Z,100.00
2023-04-22T00:40:51.139Z,100.00
2023-04-22T00:42:23.902Z,100.00
2023-04-22T00:43:56.141Z,100.00
2023-04-22T00:45:28.045Z,100.00
2023-04-22T00:47:00.563Z,100.00
2023-04-22T00:48:32.624Z,100.00
2023-04-22T00:50:05.742Z,100.00
2023-04-22T00:51:37.662Z,100.00
2023-04-22T00:53:09.669Z,100.00
2023-04-22T00:54:41.588Z,100.00
2023-04-22T00:56:13.772Z,100.00
2023-04-22T00:57:45.829Z,100.00
2023-04-22T00:59:18.001Z,100.00
2023-04-22T01:00:50.024Z,100.00
2023-04-22T01:02:22.157Z,100.00
2023-04-22T01:03:54.494Z,100.00
2023-04-22T01:05:27.504Z,100.00
2023-04-22T01:06:59.855Z,100.00
2023-04-22T01:08:31.883Z,100.00
2023-04-22T01:10:04.811Z,100.00
2023-04-22T01:11:38.094Z,100.00
2023-04-22T01:13:10.482Z,100.00
2023-04-22T01:14:42.500Z,100.00
2023-04-22T01:16:14.571Z,100.00
2023-04-22T01:17:46.727Z,100.00
2023-04-22T01:19:18.898Z,100.00
2023-04-22T01:20:51.365Z,100.00
2023-04-22T01:22:23.744Z,100.00
2023-04-22T01:23:56.207Z,100.00
2023-04-22T01:25:28.161Z,100.00
2023-04-22T01:27:00.272Z,100.00
2023-04-22T01:28:32.571Z,100.00
2023-04-22T01:30:06.418Z,100.00
2023-04-22T01:31:38.636Z,100.00
2023-04-22T01:33:13.385Z,100.00
2023-04-22T01:34:47.813Z,100.00
2023-04-22T01:36:20.997Z,100.00
2023-04-22T01:37:53.090Z,100.00
2023-04-22T01:39:25.058Z,100.00
2023-04-22T01:40:57.045Z,100.00
2023-04-22T01:42:29.199Z,100.00
2023-04-22T01:44:06.355Z,100.00
2023-04-22T01:45:39.487Z,100.00
2023-04-22T01:47:11.821Z,100.00
2023-04-22T01:48:43.926Z,100.00
2023-04-22T01:50:15.833Z,100.00
2023-04-22T01:51:47.900Z,100.00
2023-04-22T01:53:19.848Z,100.00
2023-04-22T01:54:51.796Z,100.00
2023-04-22T01:56:23.691Z,100.00
2023-04-22T01:57:55.739Z,100.00
2023-04-22T01:59:28.174Z,100.00
2023-04-22T02:01:00.168Z,100.00
2023-04-22T02:02:32.159Z,100.00
2023-04-22T02:04:04.097Z,100.00
2023-04-22T02:05:40.130Z,100.00
2023-04-22T02:07:12.031Z,100.00
2023-04-22T02:08:43.937Z,100.00
2023-04-22T02:10:17.953Z,100.00
2023-04-22T02:11:49.889Z,100.00
2023-04-22T02:13:21.954Z,100.00
2023-04-22T02:14:53.846Z,100.00
2023-04-22T02:16:25.926Z,100.00
2023-04-22T02:17:57.921Z,100.00
2023-04-22T02:19:29.833Z,100.00
2023-04-22T02:21:01.744Z,100.00
2023-04-22T02:22:33.690Z,100.00
2023-04-22T02:24:06.078Z,100.00
2023-04-22T02:25:38.691Z,100.00
2023-04-22T02:27:10.673Z,100.00
2023-04-22T02:28:43.152Z,100.00
2023-04-22T02:30:15.123Z,100.00
2023-04-22T02:31:50.042Z,100.00
2023-04-22T02:33:22.260Z,100.00
2023-04-22T02:34:55.042Z,100.00
2023-04-22T02:36:27.991Z,100.00
2023-04-22T02:38:00.615Z,100.00
2023-04-22T02:39:32.664Z,100.00
2023-04-22T02:41:04.937Z,100.00
2023-04-22T02:42:36.901Z,100.00
2023-04-22T02:44:08.788Z,100.00
2023-04-22T02:45:41.261Z,100.00
2023-04-22T02:47:13.337Z,100.00
2023-04-22T02:48:45.536Z,100.00
2023-04-22T02:50:17.496Z,100.00
2023-04-22T02:51:49.447Z,100.00
2023-04-22T02:53:21.507Z,100.00
2023-04-22T02:54:53.450Z,100.00
2023-04-22T02:56:26.883Z,100.00
2023-04-22T02:57:58.937Z,100.00
2023-04-22T02:59:31.518Z,100.00
2023-04-22T03:01:04.091Z,100.00
2023-04-22T03:02:36.979Z,100.00
2023-04-22T03:04:16.033Z,100.00
2023-04-22T03:05:48.074Z,100.00
2023-04-22T03:07:20.658Z,100.00
2023-04-22T03:08:52.736Z,100.00
2023-04-22T03:10:24.612Z,100.00
2023-04-22T03:11:56.548Z,100.00
2023-04-22T03:13:28.586Z,100.00
2023-04-22T03:15:01.391Z,100.00
2023-04-22T03:16:35.870Z,100.00
2023-04-22T03:18:10.054Z,100.00
2023-04-22T03:19:42.212Z,100.00
2023-04-22T03:21:15.006Z,100.00
2023-04-22T03:22:46.973Z,100.00
2023-04-22T03:24:20.590Z,100.00
2023-04-22T03:25:56.100Z,100.00
2023-04-22T03:27:28.238Z,100.00
2023-04-22T03:29:01.316Z,100.00
2023-04-22T03:30:33.270Z,100.00
2023-04-22T03:32:05.336Z,100.00
2023-04-22T03:33:37.730Z,100.00
2023-04-22T03:35:16.991Z,100.00
2023-04-22T03:36:51.446Z,100.00
2023-04-22T03:38:24.210Z,100.00
2023-04-22T03:39:56.859Z,100.00
2023-04-22T03:41:29.476Z,100.00
2023-04-22T03:43:01.447Z,100.00
2023-04-22T03:44:33.569Z,100.00
2023-04-22T03:46:07.537Z,100.00
2023-04-22T03:47:42.544Z,100.00
2023-04-22T03:49:24.252Z,100.00
2023-04-22T03:50:56.215Z,100.00
2023-04-22T03:52:29.192Z,100.00
2023-04-22T03:54:06.306Z,100.00
2023-04-22T03:55:41.182Z,100.00
2023-04-22T03:57:13.175Z,100.00
2023-04-22T03:58:45.505Z,100.00
2023-04-22T04:00:17.528Z,100.00
2023-04-22T04:01:55.765Z,100.00
2023-04-22T04:03:31.765Z,100.00
2023-04-22T04:05:04.171Z,100.00
2023-04-22T04:06:36.260Z,100.00
2023-04-22T04:08:09.452Z,100.00
2023-04-22T04:09:41.645Z,100.00
2023-04-22T04:11:14.077Z,100.00
2023-04-22T04:12:45.970Z,100.00
2023-04-22T04:14:17.990Z,100.00
2023-04-22T04:15:55.087Z,100.00
2023-04-22T04:17:29.224Z,100.00
2023-04-22T04:19:03.201Z,100.00
2023-04-22T04:20:37.348Z,100.00
2023-04-22T04:22:09.936Z,100.00
2023-04-22T04:23:47.962Z,100.00
2023-04-22T04:25:21.591Z,100.00
2023-04-22T04:26:54.468Z,100.00
2023-04-22T04:28:34.731Z,100.00
2023-04-22T04:30:07.969Z,100.00
2023-04-22T04:31:53.471Z,100.00
2023-04-22T04:33:26.054Z,100.00
2023-04-22T04:34:58.016Z,100.00
2023-04-22T04:36:33.125Z,100.00
2023-04-22T04:38:15.845Z,100.00
2023-04-22T04:39:48.772Z,100.00
2023-04-22T04:41:23.645Z,100.00
2023-04-22T04:42:56.045Z,100.00
2023-04-22T04:44:34.503Z,100.00
2023-04-22T04:46:08.646Z,100.00
2023-04-22T04:47:42.544Z,100.00
2023-04-22T04:49:23.094Z,100.00
2023-04-22T04:51:01.044Z,100.00
2023-04-22T04:52:36.247Z,100.00
2023-04-22T04:54:08.356Z,100.00
2023-04-22T04:55:44.214Z,100.00
2023-04-22T04:57:25.852Z,100.00
2023-04-22T04:58:58.133Z,100.00
2023-04-22T05:00:32.444Z,100.00
2023-04-22T05:02:04.504Z,100.00
2023-04-22T05:03:36.724Z,100.00
2023-04-22T05:05:10.794Z,100.00
2023-04-22T05:06:44.332Z,100.00
2023-04-22T05:08:18.569Z,100.00
2023-04-22T05:09:53.049Z,100.00
2023-04-22T05:11:25.126Z,100.00
2023-04-22T05:12:58.413Z,100.00
2023-04-22T05:14:31.239Z,100.00
2023-04-22T05:16:03.191Z,100.00
2023-04-22T05:17:36.386Z,100.00
2023-04-22T05:19:10.199Z,100.00
2023-04-22T05:20:42.555Z,100.00
2023-04-22T05:22:14.604Z,100.00
2023-04-22T05:23:46.556Z,100.00
2023-04-22T05:25:19.713Z,100.00
2023-04-22T05:27:00.833Z,100.00
2023-04-22T05:28:34.256Z,100.00
2023-04-22T05:30:06.789Z,100.00
2023-04-22T05:31:41.751Z,100.00
2023-04-22T05:33:14.302Z,100.00
2023-04-22T05:34:46.528Z,100.00
2023-04-22T05:36:18.508Z,100.00
2023-04-22T05:37:52.407Z,100.00
2023-04-22T05:39:24.375Z,100.00
2023-04-22T05:40:56.713Z,100.00
2023-04-22T05:42:29.802Z,100.00
2023-04-22T05:44:04.615Z,100.00
2023-04-22T05:45:36.665Z,100.00
2023-04-22T05:47:10.834Z,100.00
2023-04-22T05:48:42.841Z,100.00
2023-04-22T05:50:26.103Z,100.00
2023-04-22T05:52:08.790Z,100.00
2023-04-22T05:53:52.824Z,100.00
2023-04-22T05:55:25.405Z,100.00
2023-04-22T05:56:58.785Z,100.00
2023-04-22T05:58:30.819Z,100.00
2023-04-22T06:00:13.869Z,100.00
2023-04-22T06:01:47.390Z,100.00
2023-04-22T06:03:24.089Z,100.00
2023-04-22T06:04:56.779Z,100.00
2023-04-22T06:06:30.931Z,100.00
2023-04-22T06:08:02.959Z,100.00
2023-04-22T06:09:35.197Z,100.00
2023-04-22T06:11:07.285Z,100.00
2023-04-22T06:12:41.318Z,100.00
2023-04-22T06:14:13.632Z,100.00
2023-04-22T06:15:48.036Z,100.00
2023-04-22T06:17:20.155Z,100.00
2023-04-22T06:18:52.320Z,100.00
2023-04-22T06:20:26.554Z,100.00
2023-04-22T06:21:59.368Z,100.00
2023-04-22T06:23:31.405Z,100.00
2023-04-22T06:25:03.404Z,100.00
2023-04-22T06:26:36.858Z,100.00
2023-04-22T06:28:08.903Z,100.00
2023-04-22T06:29:45.852Z,100.00
2023-04-22T06:31:19.788Z,100.00
2023-04-22T06:32:55.367Z,100.00
2023-04-22T06:34:27.452Z,100.00
2023-04-22T06:36:02.913Z,100.00
2023-04-22T06:37:37.125Z,100.00
2023-04-22T06:39:11.866Z,100.00
2023-04-22T06:40:51.456Z,100.00
2023-04-22T06:42:29.906Z,100.00
2023-04-22T06:44:20.717Z,100.00
2023-04-22T06:46:01.900Z,100.00
2023-04-22T06:47:54.360Z,100.00
2023-04-22T06:49:29.636Z,100.00
2023-04-22T06:51:25.886Z,100.00
2023-04-22T06:52:58.306Z,100.00
2023-04-22T06:54:30.291Z,100.00
2023-04-22T06:56:02.376Z,100.00
2023-04-22T06:57:35.014Z,100.00
2023-04-22T06:59:10.029Z,100.00
2023-04-22T07:00:42.266Z,100.00
2023-04-22T07:02:14.962Z,100.00
2023-04-22T07:03:48.610Z,100.00
2023-04-22T07:05:21.052Z,100.00
2023-04-22T07:06:53.797Z,100.00
2023-04-22T07:08:26.039Z,100.00
2023-04-22T07:09:58.556Z,100.00
2023-04-22T07:11:35.822Z,100.00
2023-04-22T07:13:12.167Z,100.00
2023-04-22T07:14:45.203Z,100.00
2023-04-22T07:16:17.292Z,100.00
2023-04-22T07:17:50.302Z,100.00
2023-04-22T07:19:22.248Z,100.00
2023-04-22T07:20:54.421Z,100.00
2023-04-22T07:22:26.758Z,100.00
2023-04-22T07:23:59.131Z,100.00
2023-04-22T07:25:31.292Z,100.00
2023-04-22T07:27:03.526Z,100.00
2023-04-22T07:28:35.751Z,100.00
2023-04-22T07:30:11.897Z,100.00
2023-04-22T07:31:44.742Z,100.00
2023-04-22T07:33:16.908Z,100.00
2023-04-22T07:34:52.000Z,100.00
2023-04-22T07:36:24.012Z,100.00
2023-04-22T07:37:56.060Z,100.00
2023-04-22T07:39:28.288Z,100.00
2023-04-22T07:41:00.422Z,100.00
2023-04-22T07:42:32.583Z,100.00
2023-04-22T07:44:04.603Z,100.00
2023-04-22T07:45:36.818Z,100.00
2023-04-22T07:47:08.884Z,100.00
2023-04-22T07:48:40.856Z,100.00
2023-04-22T07:50:12.961Z,100.00
2023-04-22T07:51:45.311Z,100.00
2023-04-22T07:53:18.033Z,100.00
2023-04-22T07:54:50.344Z,100.00
2023-04-22T07:56:23.220Z,100.00
2023-04-22T07:57:55.041Z,100.00
2023-04-22T07:59:27.057Z,100.00
2023-04-22T08:00:59.115Z,100.00
2023-04-22T08:02:31.278Z,100.00
2023-04-22T08:04:03.980Z,100.00
2023-04-22T08:05:36.252Z,100.00
2023-04-22T08:07:30.449Z,100.00
2023-04-22T08:09:00.430Z,100.00
2023-04-22T08:10:32.592Z,100.00
2023-04-22T08:12:04.811Z,100.00
2023-04-22T08:13:36.857Z,100.00
2023-04-22T08:15:09.347Z,100.00
2023-04-22T08:16:42.366Z,100.00
2023-04-22T08:18:14.398Z,100.00
2023-04-22T08:19:46.295Z,100.00
2023-04-22T08:21:18.482Z,100.00
2023-04-22T08:22:51.827Z,100.00
2023-04-22T08:24:24.086Z,100.00
2023-04-22T08:25:56.309Z,100.00
2023-04-22T08:27:28.519Z,100.00
2023-04-22T08:29:01.442Z,100.00
2023-04-22T08:30:33.599Z,100.00
2023-04-22T08:32:08.623Z,100.00
2023-04-22T08:33:41.775Z,100.00
2023-04-22T08:35:13.915Z,100.00
2023-04-22T08:36:45.922Z,100.00
2023-04-22T08:38:18.082Z,100.00
2023-04-22T08:39:50.406Z,100.00
2023-04-22T08:41:23.001Z,100.00
2023-04-22T08:42:56.304Z,100.00
2023-04-22T08:44:29.141Z,100.00
2023-04-22T08:46:02.358Z,100.00
2023-04-22T08:47:35.057Z,100.00
2023-04-22T08:49:07.522Z,100.00
2023-04-22T08:50:40.217Z,100.00
2023-04-22T08:52:13.166Z,100.00
2023-04-22T08:53:45.729Z,100.00
2023-04-22T08:55:18.046Z,100.00
2023-04-22T08:56:51.327Z,100.00
2023-04-22T08:58:24.467Z,100.00
2023-04-22T08:59:56.882Z,100.00
2023-04-22T09:01:32.872Z,100.00
2023-04-22T09:03:07.405Z,100.00
2023-04-22T09:04:40.792Z,100.00
2023-04-22T09:06:13.094Z,100.00
2023-04-22T09:07:47.530Z,100.00
2023-04-22T09:09:22.857Z,100.00
2023-04-22T09:10:55.063Z,100.00
2023-04-22T09:12:27.966Z,100.00
2023-04-22T09:14:01.403Z,100.00
2023-04-22T09:15:37.038Z,100.00
2023-04-22T09:17:09.164Z,100.00
2023-04-22T09:18:42.957Z,100.00
2023-04-22T09:20:16.310Z,100.00
2023-04-22T09:21:50.352Z,100.00
2023-04-22T09:23:23.463Z,100.00
2023-04-22T09:24:55.588Z,100.00
2023-04-22T09:26:27.603Z,100.00
2023-04-22T09:27:59.995Z,100.00
2023-04-22T09:29:32.208Z,100.00
2023-04-22T09:31:04.258Z,100.00
2023-04-22T09:32:36.220Z,100.00
2023-04-22T09:34:08.937Z,100.00
2023-04-22T09:35:41.727Z,100.00
2023-04-22T09:37:13.657Z,100.00
2023-04-22T09:38:53.268Z,100.00
2023-04-22T09:40:25.738Z,100.00
2023-04-22T09:41:57.748Z,100.00
2023-04-22T09:43:33.054Z,100.00
2023-04-22T09:45:05.827Z,100.00
2023-04-22T09:46:37.702Z,100.00
2023-04-22T09:48:11.930Z,100.00
2023-04-22T09:49:49.677Z,100.00
2023-04-22T09:51:21.920Z,100.00
2023-04-22T09:53:02.146Z,100.00
2023-04-22T09:54:34.138Z,100.00
2023-04-22T09:56:08.562Z,100.00
2023-04-22T09:57:40.785Z,100.00
2023-04-22T09:59:12.855Z,100.00
2023-04-22T10:00:53.768Z,100.00
2023-04-22T10:02:29.605Z,97.23
2023-04-22T10:04:01.754Z,100.00
2023-04-22T10:05:37.914Z,100.00
2023-04-22T10:07:09.855Z,95.01
2023-04-22T10:08:42.240Z,95.57
2023-04-22T10:10:14.832Z,92.98
2023-04-22T10:11:48.014Z,96.32
2023-04-22T10:13:19.973Z,98.65
2023-04-22T10:14:51.951Z,91.20
2023-04-22T10:16:25.287Z,95.98
2023-04-22T10:17:58.390Z,92.76
2023-04-22T10:19:31.955Z,91.33
2023-04-22T10:21:04.611Z,92.92
2023-04-22T10:22:36.511Z,92.33
2023-04-22T10:24:09.538Z,91.57
2023-04-22T10:25:42.242Z,88.53
2023-04-22T10:27:14.109Z,89.34
2023-04-22T10:28:46.024Z,90.11
2023-04-22T10:30:27.237Z,90.22
2023-04-22T10:32:24.675Z,84.34
2023-04-22T10:34:11.700Z,84.27
2023-04-22T10:36:06.515Z,86.98
2023-04-22T10:37:42.325Z,83.09
2023-04-22T10:39:18.056Z,79.00
2023-04-22T10:41:00.288Z,83.03
2023-04-22T10:42:32.553Z,86.36
2023-04-22T10:44:08.409Z,89.71
2023-04-22T10:45:40.574Z,87.18
2023-04-22T10:47:12.697Z,90.49
2023-04-22T10:48:48.743Z,88.05
2023-04-22T10:50:24.940Z,89.50
2023-04-22T10:51:58.811Z,90.10
2023-04-22T10:53:37.340Z,90.10
2023-04-22T10:55:09.931Z,92.31
2023-04-22T10:57:22.858Z,95.33
2023-04-22T10:58:57.141Z,89.53
2023-04-22T11:00:45.729Z,83.61
2023-04-22T11:02:25.246Z,81.13
2023-04-22T11:04:23.699Z,79.89
2023-04-22T11:06:17.935Z,86.62
2023-04-22T11:07:50.532Z,91.20
2023-04-22T11:09:22.582Z,91.19
2023-04-22T11:11:09.009Z,85.01
2023-04-22T11:12:43.016Z,80.77
2023-04-22T11:14:15.169Z,81.18
2023-04-22T11:15:49.536Z,79.47
2023-04-22T11:17:21.733Z,82.92
2023-04-22T11:18:53.785Z,83.16
2023-04-22T11:20:25.852Z,84.63
2023-04-22T11:21:58.984Z,87.36
2023-04-22T11:23:31.522Z,86.13
2023-04-22T11:25:06.877Z,88.12
2023-04-22T11:26:38.785Z,86.55
2023-04-22T11:28:11.114Z,87.90
2023-04-22T11:29:43.122Z,87.79
2023-04-22T11:31:15.831Z,87.73
2023-04-22T11:32:48.663Z,89.65
2023-04-22T11:34:20.846Z,87.89
2023-04-22T11:35:52.968Z,91.25
2023-04-22T11:37:27.354Z,87.85
2023-04-22T11:38:59.354Z,87.92
2023-04-22T11:40:36.883Z,88.15
2023-04-22T11:42:13.208Z,91.24
2023-04-22T11:43:48.320Z,90.40
2023-04-22T11:45:21.306Z,91.30
2023-04-22T11:46:57.192Z,88.47
2023-04-22T11:48:29.192Z,90.01
2023-04-22T11:50:05.197Z,90.81
2023-04-22T11:51:37.152Z,88.88
2023-04-22T11:53:19.878Z,90.63
2023-04-22T11:54:52.388Z,94.00
2023-04-22T11:56:24.340Z,94.95
2023-04-22T11:58:03.350Z,92.17
2023-04-22T11:59:35.744Z,93.24
2023-04-22T12:01:12.873Z,95.29
2023-04-22T12:02:56.696Z,92.36
2023-04-22T12:04:28.863Z,92.44
2023-04-22T12:06:02.816Z,91.15
2023-04-22T12:07:35.052Z,89.78
2023-04-22T12:09:08.318Z,92.37
2023-04-22T12:10:44.890Z,93.62
2023-04-22T12:12:16.805Z,88.44
2023-04-22T12:13:50.908Z,87.82
2023-04-22T12:15:23.940Z,95.51
2023-04-22T12:16:56.051Z,88.79
2023-04-22T12:18:34.839Z,89.13
2023-04-22T12:20:08.022Z,90.17
2023-04-22T12:21:42.152Z,91.07
2023-04-22T12:23:17.240Z,91.34
2023-04-22T12:24:49.264Z,88.43
2023-04-22T12:26:26.672Z,95.15
2023-04-22T12:27:59.260Z,91.28
2023-04-22T12:29:32.520Z,89.10
2023-04-22T12:31:04.805Z,87.85
2023-04-22T12:32:36.893Z,89.07
2023-04-22T12:34:08.890Z,86.25
2023-04-22T12:35:41.483Z,89.77
2023-04-22T12:37:13.481Z,85.80
2023-04-22T12:38:45.561Z,86.85
2023-04-22T12:40:17.654Z,88.36
2023-04-22T12:41:53.032Z,86.78
2023-04-22T12:43:25.413Z,90.41
2023-04-22T12:44:57.319Z,92.29
2023-04-22T12:46:29.360Z,95.24
2023-04-22T12:48:01.656Z,90.04
2023-04-22T12:49:33.595Z,96.42
2023-04-22T12:51:06.996Z,100.00
2023-04-22T12:52:39.197Z,100.00
2023-04-22T12:54:11.225Z,100.00
2023-04-22T12:55:45.913Z,100.00
2023-04-22T12:57:18.116Z,100.00
2023-04-22T12:58:50.195Z,100.00
2023-04-22T13:00:23.064Z,100.00
2023-04-22T13:01:55.271Z,100.00
2023-04-22T13:03:27.573Z,100.00
2023-04-22T13:04:59.692Z,100.00
2023-04-22T13:06:32.867Z,100.00
2023-04-22T13:08:07.590Z,100.00
2023-04-22T13:09:40.254Z,100.00
2023-04-22T13:11:12.407Z,100.00
2023-04-22T13:12:44.366Z,100.00
2023-04-22T13:14:16.244Z,100.00
2023-04-22T13:15:54.163Z,100.00
2023-04-22T13:17:26.851Z,100.00
2023-04-22T13:18:58.812Z,100.00
2023-04-22T13:20:30.832Z,100.00
2023-04-22T13:22:02.955Z,100.00
2023-04-22T13:23:35.626Z,100.00
2023-04-22T13:25:08.426Z,100.00
2023-04-22T13:26:40.477Z,100.00
2023-04-22T13:28:12.423Z,100.00
2023-04-22T13:29:44.984Z,100.00
2023-04-22T13:31:17.140Z,100.00
2023-04-22T13:32:49.097Z,100.00
2023-04-22T13:34:21.310Z,100.00
2023-04-22T13:35:53.237Z,100.00
2023-04-22T13:37:25.429Z,100.00
2023-04-22T13:38:57.724Z,100.00
2023-04-22T13:40:29.670Z,100.00
2023-04-22T13:42:01.922Z,100.00
2023-04-22T13:43:33.935Z,100.00
2023-04-22T13:45:07.277Z,100.00
2023-04-22T13:46:39.906Z,100.00
2023-04-22T13:48:11.981Z,100.00
2023-04-22T13:49:43.982Z,100.00
2023-04-22T13:51:16.197Z,100.00
2023-04-22T13:52:48.643Z,100.00
2023-04-22T13:54:20.689Z,100.00
2023-04-22T13:55:52.611Z,100.00
2023-04-22T13:57:24.715Z,100.00
2023-04-22T13:58:58.214Z,100.00
2023-04-22T14:00:30.217Z,100.00
2023-04-22T14:04:24.274Z,100.00
2023-04-22T14:05:56.374Z,100.00
2023-04-22T14:07:28.838Z,100.00
2023-04-22T14:09:01.554Z,100.00
2023-04-22T14:10:33.524Z,100.00
2023-04-22T14:12:07.387Z,100.00
2023-04-22T14:13:39.991Z,100.00
2023-04-22T14:15:12.175Z,100.00
2023-04-22T14:16:44.436Z,100.00
2023-04-22T14:18:16.627Z,100.00
2023-04-22T14:19:48.918Z,100.00
2023-04-22T14:21:21.182Z,100.00
2023-04-22T14:22:53.367Z,100.00
2023-04-22T14:24:27.112Z,100.00
2023-04-22T14:25:59.166Z,100.00
2023-04-22T14:27:31.245Z,100.00
2023-04-22T14:29:04.030Z,100.00
2023-04-22T14:30:36.088Z,100.00
2023-04-22T14:32:08.050Z,100.00
2023-04-22T14:33:40.095Z,100.00
2023-04-22T14:35:11.997Z,100.00
2023-04-22T14:36:44.441Z,100.00
2023-04-22T14:38:16.651Z,100.00
2023-04-22T14:39:48.576Z,100.00
2023-04-22T14:41:21.729Z,100.00
2023-04-22T14:42:54.836Z,100.00
2023-04-22T14:44:26.845Z,100.00
2023-04-22T14:45:58.889Z,100.00
2023-04-22T14:47:30.932Z,100.00
2023-04-22T14:49:02.970Z,100.00
2023-04-22T14:50:35.030Z,100.00
2023-04-22T14:52:07.211Z,100.00
2023-04-22T14:53:39.250Z,100.00
2023-04-22T14:55:21.800Z,100.00
2023-04-22T14:56:56.865Z,100.00
2023-04-22T14:58:32.838Z,100.00
2023-04-22T15:00:11.997Z,100.00
2023-04-22T15:01:44.234Z,100.00
2023-04-22T15:03:16.959Z,100.00
2023-04-22T15:04:48.980Z,100.00
2023-04-22T15:06:23.024Z,100.00
2023-04-22T15:07:55.045Z,100.00
2023-04-22T15:09:28.112Z,100.00
2023-04-22T15:11:00.120Z,100.00
2023-04-22T15:12:32.171Z,100.00
2023-04-22T15:14:05.185Z,100.00
2023-04-22T15:15:37.428Z,100.00
2023-04-22T15:17:10.039Z,100.00
2023-04-22T15:18:42.120Z,100.00
2023-04-22T15:20:15.171Z,100.00
2023-04-22T15:21:47.512Z,100.00
2023-04-22T15:23:19.459Z,100.00
2023-04-22T15:24:51.695Z,100.00
2023-04-22T15:26:23.928Z,100.00
2023-04-22T15:27:57.318Z,100.00
2023-04-22T15:29:33.390Z,100.00
2023-04-22T15:31:05.830Z,100.00
2023-04-22T15:32:39.509Z,100.00
2023-04-22T15:34:14.996Z,100.00
2023-04-22T15:35:50.553Z,100.00
2023-04-22T15:37:22.637Z,100.00
2023-04-22T15:38:56.647Z,100.00
2023-04-22T15:40:28.859Z,100.00
2023-04-22T15:42:02.022Z,100.00
2023-04-22T15:43:34.382Z,100.00
2023-04-22T15:45:07.242Z,100.00
2023-04-22T15:46:39.180Z,100.00
2023-04-22T15:48:11.860Z,100.00
2023-04-22T15:49:44.442Z,100.00
2023-04-22T15:51:17.833Z,100.00
2023-04-22T15:52:56.433Z,100.00
2023-04-22T15:54:38.516Z,100.00
2023-04-22T15:56:29.695Z,100.00
2023-04-22T15:58:02.837Z,100.00
2023-04-22T15:59:34.787Z,100.00
2023-04-22T16:01:18.075Z,100.00
2023-04-22T16:02:55.713Z,100.00
2023-04-22T16:04:28.254Z,100.00
2023-04-22T16:06:03.187Z,100.00
2023-04-22T16:07:35.522Z,100.00
2023-04-22T16:09:07.545Z,100.00
2023-04-22T16:10:39.604Z,100.00
2023-04-22T16:12:11.668Z,100.00
2023-04-22T16:13:43.855Z,100.00
2023-04-22T16:15:16.820Z,100.00
2023-04-22T16:16:49.038Z,100.00
2023-04-22T16:18:21.115Z,100.00
2023-04-22T16:19:53.700Z,100.00
2023-04-22T16:21:25.630Z,100.00
2023-04-22T16:22:57.639Z,100.00
2023-04-22T16:24:29.598Z,100.00
2023-04-22T16:26:03.107Z,100.00
2023-04-22T16:27:35.267Z,100.00
2023-04-22T16:29:10.066Z,100.00
2023-04-22T16:30:42.155Z,100.00
2023-04-22T16:32:14.287Z,100.00
2023-04-22T16:33:46.515Z,100.00
2023-04-22T16:35:18.590Z,100.00
2023-04-22T16:36:50.713Z,100.00
2023-04-22T16:38:22.740Z,100.00
2023-04-22T16:39:54.783Z,100.00
2023-04-22T16:41:26.871Z,100.00
2023-04-22T16:44:42.043Z,100.00
2023-04-22T16:46:14.119Z,100.00
2023-04-22T16:47:46.091Z,100.00
2023-04-22T16:49:18.155Z,100.00
2023-04-22T16:50:51.486Z,100.00
2023-04-22T16:52:23.424Z,100.00
2023-04-22T16:53:55.343Z,100.00
2023-04-22T16:55:27.369Z,100.00
2023-04-22T16:56:59.370Z,100.00
2023-04-22T16:58:31.422Z,100.00
2023-04-22T17:00:06.149Z,100.00
2023-04-22T17:01:38.167Z,100.00
2023-04-22T17:03:12.208Z,100.00
2023-04-22T17:04:44.271Z,100.00
2023-04-22T17:06:16.167Z,100.00
2023-04-22T17:07:48.220Z,100.00
2023-04-22T17:09:20.201Z,100.00
2023-04-22T17:10:52.747Z,100.00
2023-04-22T17:12:24.706Z,100.00
2023-04-22T17:13:56.858Z,100.00
2023-04-22T17:15:28.731Z,100.00
2023-04-22T17:17:00.705Z,100.00
2023-04-22T17:18:32.700Z,100.00
2023-04-22T17:20:06.880Z,100.00
2023-04-22T17:21:38.779Z,100.00
2023-04-22T17:23:10.803Z,100.00
2023-04-22T17:24:42.904Z,100.00
2023-04-22T17:26:14.859Z,100.00
2023-04-22T17:27:46.771Z,100.00
2023-04-22T17:29:22.291Z,100.00
2023-04-22T17:30:54.779Z,100.00
2023-04-22T17:32:26.756Z,100.00
2023-04-22T17:33:58.730Z,100.00
2023-04-22T17:35:30.763Z,100.00
2023-04-22T17:37:03.426Z,100.00
2023-04-22T17:38:35.579Z,100.00
2023-04-22T17:40:11.573Z,100.00
2023-04-22T17:41:44.286Z,100.00
2023-04-22T17:43:16.777Z,100.00
2023-04-22T17:44:50.068Z,100.00
2023-04-22T17:46:22.375Z,100.00
2023-04-22T17:47:54.691Z,100.00
2023-04-22T17:49:26.723Z,100.00
2023-04-22T17:51:01.630Z,100.00
2023-04-22T17:52:34.903Z,100.00
2023-04-22T17:54:06.937Z,100.00
2023-04-22T17:55:39.177Z,100.00
2023-04-22T17:57:12.012Z,100.00
2023-04-22T17:58:43.904Z,100.00
2023-04-22T18:00:17.099Z,100.00
2023-04-22T18:01:49.187Z,100.00
2023-04-22T18:03:21.486Z,100.00
2023-04-22T18:04:53.605Z,100.00
2023-04-22T18:06:25.883Z,100.00
2023-04-22T18:08:01.939Z,100.00
2023-04-22T18:09:33.941Z,100.00
2023-04-22T18:11:06.199Z,100.00
2023-04-22T18:12:38.238Z,100.00
2023-04-22T18:14:11.311Z,100.00
2023-04-22T18:15:43.424Z,100.00
2023-04-22T18:17:16.412Z,100.00
2023-04-22T18:18:48.388Z,100.00
2023-04-22T18:20:20.425Z,100.00
2023-04-22T18:21:59.570Z,100.00
2023-04-22T18:23:32.639Z,100.00
2023-04-22T18:25:05.017Z,100.00
2023-04-22T18:26:37.164Z,100.00
2023-04-22T18:28:09.162Z,100.00
2023-04-22T18:29:41.410Z,100.00
2023-04-22T18:31:13.714Z,100.00
2023-04-22T18:32:46.440Z,100.00
2023-04-22T18:34:18.496Z,100.00
2023-04-22T18:35:51.236Z,100.00
2023-04-22T18:37:23.148Z,100.00
2023-04-22T18:38:55.085Z,100.00
2023-04-22T18:40:26.993Z,100.00
2023-04-22T18:41:58.971Z,100.00
2023-04-22T18:43:30.911Z,100.00
2023-04-22T18:45:06.708Z,100.00
2023-04-22T18:46:38.722Z,100.00
2023-04-22T18:48:10.722Z,100.00
2023-04-22T18:49:42.672Z,100.00
2023-04-22T18:51:14.578Z,100.00
2023-04-22T18:52:46.630Z,100.00
2023-04-22T18:54:18.633Z,100.00
2023-04-22T18:55:50.631Z,100.00
2023-04-22T18:57:22.548Z,100.00
2023-04-22T18:58:55.311Z,100.00
2023-04-22T19:00:27.784Z,100.00
2023-04-22T19:01:59.859Z,100.00
2023-04-22T19:03:32.105Z,100.00
2023-04-22T19:05:07.410Z,100.00
2023-04-22T19:06:39.429Z,100.00
2023-04-22T19:08:11.323Z,100.00
2023-04-22T19:09:43.330Z,100.00
2023-04-22T19:11:17.268Z,100.00
2023-04-22T19:12:49.360Z,100.00
2023-04-22T19:14:21.320Z,100.00
2023-04-22T19:15:53.355Z,100.00
2023-04-22T19:17:29.061Z,100.00
2023-04-22T19:19:01.016Z,100.00
2023-04-22T19:20:32.941Z,100.00
2023-04-22T19:22:05.015Z,100.00
2023-04-22T19:23:37.075Z,100.00
2023-04-22T19:25:09.288Z,100.00
2023-04-22T19:26:41.575Z,100.00
2023-04-22T19:28:13.516Z,100.00
2023-04-22T19:29:51.403Z,100.00
2023-04-22T19:31:23.474Z,100.00
2023-04-22T19:32:56.143Z,100.00
2023-04-22T19:34:28.925Z,100.00
2023-04-22T19:36:00.829Z,100.00